createdAt,value
2023-04-12T00:00:44.723Z,16.10
2023-04-12T00:03:12.582Z,26.03
2023-04-12T00:05:40.316Z,21.87
2023-04-12T00:08:10.744Z,27.03
2023-04-12T00:10:38.582Z,20.27
2023-04-12T00:13:07.941Z,22.83
2023-04-12T00:15:35.953Z,42.57
2023-04-12T00:18:03.613Z,16.97
2023-04-12T00:20:31.240Z,31.17
2023-04-12T00:22:58.901Z,24.27
2023-04-12T00:25:26.600Z,21.20
2023-04-12T00:27:54.194Z,15.33
2023-04-12T00:30:23.435Z,21.77
2023-04-12T00:32:51.167Z,26.07
2023-04-12T00:35:19.174Z,20.53
2023-04-12T00:37:46.787Z,25.40
2023-04-12T00:40:14.814Z,24.73
2023-04-12T00:42:42.484Z,19.80
2023-04-12T00:45:10.901Z,31.20
2023-04-12T00:47:40.296Z,24.67
2023-04-12T00:50:09.434Z,27.97
2023-04-12T00:52:37.564Z,20.17
2023-04-12T00:55:07.174Z,25.73
2023-04-12T00:57:37.065Z,28.93
2023-04-12T01:00:05.993Z,24.63
2023-04-12T01:02:34.997Z,18.70
2023-04-12T01:05:04.368Z,20.43
2023-04-12T01:07:44.858Z,23.27
2023-04-12T01:10:25.907Z,18.00
2023-04-12T01:13:07.112Z,24.43
2023-04-12T01:15:41.035Z,30.40
2023-04-12T01:18:11.879Z,21.43
2023-04-12T01:20:48.394Z,28.80
2023-04-12T01:23:26.162Z,26.43
2023-04-12T01:26:10.809Z,22.90
2023-04-12T01:28:43.739Z,27.60
2023-04-12T01:31:13.834Z,21.27
2023-04-12T01:33:43.877Z,31.80
2023-04-12T01:36:14.315Z,20.10
2023-04-12T01:38:42.912Z,22.13
2023-04-12T01:41:11.024Z,19.53
2023-04-12T01:43:44.051Z,29.13
2023-04-12T01:46:12.874Z,26.23
2023-04-12T01:48:41.114Z,24.97
2023-04-12T01:51:15.523Z,17.93
2023-04-12T01:53:49.105Z,25.00
2023-04-12T01:56:18.777Z,20.73
2023-04-12T01:58:49.749Z,19.40
2023-04-12T02:01:19.420Z,21.07
2023-04-12T02:03:49.881Z,17.27
2023-04-12T02:06:21.224Z,20.83
2023-04-12T02:08:49.804Z,24.20
2023-04-12T02:11:17.602Z,17.40
2023-04-12T02:13:45.298Z,24.10
2023-04-12T02:16:14.945Z,26.83
2023-04-12T02:18:42.857Z,20.63
2023-04-12T02:21:10.466Z,23.10
2023-04-12T02:23:38.109Z,17.70
2023-04-12T02:26:05.991Z,18.37
2023-04-12T02:28:34.642Z,22.60
2023-04-12T02:31:02.255Z,19.47
2023-04-12T02:33:31.367Z,20.13
2023-04-12T02:35:59.405Z,19.63
2023-04-12T02:38:27.004Z,19.53
2023-04-12T02:40:54.616Z,23.80
2023-04-12T02:43:22.354Z,24.50
2023-04-12T02:45:50.430Z,19.43
2023-04-12T02:48:18.222Z,19.67
2023-04-12T02:50:47.280Z,22.03
2023-04-12T02:53:16.352Z,21.23
2023-04-12T02:55:44.694Z,21.50
2023-04-12T02:58:12.776Z,21.33
2023-04-12T03:00:42.328Z,23.53
2023-04-12T03:03:10.186Z,22.53
2023-04-12T03:05:38.302Z,26.13
2023-04-12T03:08:07.693Z,21.13
2023-04-12T03:10:35.258Z,19.77
2023-04-12T03:13:02.940Z,21.67
2023-04-12T03:15:30.611Z,20.53
2023-04-12T03:17:58.390Z,19.77
2023-04-12T03:20:26.114Z,19.20
2023-04-12T03:22:53.700Z,34.47
2023-04-12T03:25:22.711Z,24.90
2023-04-12T03:27:50.500Z,19.60
2023-04-12T03:30:18.131Z,20.03
2023-04-12T03:32:46.083Z,20.03
2023-04-12T03:35:13.869Z,20.20
2023-04-12T03:37:43.830Z,20.50
2023-04-12T03:40:11.850Z,17.50
2023-04-12T03:42:40.879Z,19.63
2023-04-12T03:45:09.183Z,19.40
2023-04-12T03:47:37.225Z,19.00
2023-04-12T03:52:38.446Z,20.40
2023-04-12T03:55:07.481Z,21.07
2023-04-12T03:57:35.784Z,21.30
2023-04-12T04:00:08.387Z,19.93
2023-04-12T04:02:36.155Z,19.67
2023-04-12T04:05:04.922Z,21.90
2023-04-12T04:07:33.042Z,22.40
2023-04-12T04:10:01.057Z,20.13
2023-04-12T04:12:28.821Z,21.57
2023-04-12T04:14:56.811Z,23.90
2023-04-12T04:17:25.844Z,19.70
2023-04-12T04:19:53.483Z,25.50
2023-04-12T04:22:21.680Z,19.30
2023-04-12T04:24:51.692Z,19.97
2023-04-12T04:27:20.484Z,19.77
2023-04-12T04:29:48.054Z,18.87
2023-04-12T04:32:15.730Z,19.37
2023-04-12T04:34:44.726Z,18.90
2023-04-12T04:37:12.473Z,18.23
2023-04-12T04:39:40.110Z,17.43
2023-04-12T04:42:07.757Z,19.37
2023-04-12T04:44:37.206Z,18.27
2023-04-12T04:47:06.821Z,17.77
2023-04-12T04:49:34.764Z,18.07
2023-04-12T04:52:04.271Z,18.63
2023-04-12T04:54:33.119Z,17.47
2023-04-12T04:57:01.631Z,18.33
2023-04-12T04:59:29.223Z,16.50
2023-04-12T05:01:56.844Z,17.03
2023-04-12T05:04:24.926Z,16.70
2023-04-12T05:06:53.688Z,17.17
2023-04-12T05:09:22.780Z,17.47
2023-04-12T05:11:50.763Z,17.47
2023-04-12T05:14:18.408Z,18.87
2023-04-12T05:16:46.170Z,16.97
2023-04-12T05:19:13.873Z,16.27
2023-04-12T05:21:41.475Z,17.73
2023-04-12T05:24:09.623Z,16.03
2023-04-12T05:26:38.549Z,16.27
2023-04-12T05:29:06.445Z,16.13
2023-04-12T05:31:34.139Z,15.90
2023-04-12T05:34:02.091Z,16.30
2023-04-12T05:36:29.830Z,15.60
2023-04-12T05:38:57.890Z,14.97
2023-04-12T05:41:25.740Z,14.30
2023-04-12T05:43:54.733Z,15.17
2023-04-12T05:46:22.964Z,15.67
2023-04-12T05:48:50.825Z,15.40
2023-04-12T05:51:25.155Z,13.37
2023-04-12T05:53:58.490Z,12.97
2023-04-12T05:56:26.083Z,14.73
2023-04-12T05:58:55.738Z,14.17
2023-04-12T06:01:24.799Z,12.73
2023-04-12T06:03:52.767Z,13.63
2023-04-12T06:06:20.536Z,12.53
2023-04-12T06:08:48.206Z,13.90
2023-04-12T06:11:16.198Z,12.20
2023-04-12T06:13:43.887Z,11.27
2023-04-12T06:16:13.577Z,10.30
2023-04-12T06:18:41.236Z,10.37
2023-04-12T06:21:09.066Z,9.93
2023-04-12T06:23:36.786Z,9.20
2023-04-12T06:26:04.630Z,8.73
2023-04-12T06:28:32.314Z,7.90
2023-04-12T06:31:00.332Z,8.83
2023-04-12T06:33:29.316Z,9.03
2023-04-12T06:35:57.088Z,8.57
2023-04-12T06:38:24.862Z,9.00
2023-04-12T06:40:53.076Z,9.10
2023-04-12T06:43:22.630Z,8.03
2023-04-12T06:45:50.948Z,7.70
2023-04-12T06:48:18.748Z,8.03
2023-04-12T06:50:48.103Z,8.20
2023-04-12T06:53:15.830Z,8.90
2023-04-12T06:55:43.438Z,8.10
2023-04-12T06:58:11.009Z,8.53
2023-04-12T07:00:38.715Z,6.90
2023-04-12T07:03:06.500Z,7.20
2023-04-12T07:05:34.368Z,7.20
2023-04-12T07:08:03.485Z,6.30
2023-04-12T07:10:31.138Z,7.10
2023-04-12T07:13:03.466Z,7.00
2023-04-12T07:15:31.061Z,6.50
2023-04-12T07:17:58.714Z,6.77
2023-04-12T07:20:26.409Z,6.67
2023-04-12T07:22:54.057Z,6.83
2023-04-12T07:25:23.091Z,7.73
2023-04-12T07:27:51.812Z,7.13
2023-04-12T07:30:19.743Z,6.30
2023-04-12T07:32:47.464Z,6.47
2023-04-12T07:35:16.935Z,6.03
2023-04-12T07:37:44.770Z,6.10
2023-04-12T07:40:12.741Z,6.50
2023-04-12T07:42:41.732Z,6.97
2023-04-12T07:45:09.805Z,8.13
2023-04-12T07:47:37.392Z,6.40
2023-04-12T07:50:05.630Z,6.00
2023-04-12T07:52:34.688Z,6.83
2023-04-12T07:55:02.463Z,6.30
2023-04-12T07:57:30.574Z,6.30
2023-04-12T08:00:00.043Z,6.30
2023-04-12T08:02:27.885Z,7.47
2023-04-12T08:04:55.802Z,6.07
2023-04-12T08:07:23.984Z,6.50
2023-04-12T08:09:51.981Z,6.57
2023-04-12T08:12:21.114Z,6.80
2023-04-12T08:14:48.742Z,7.20
2023-04-12T08:17:17.741Z,7.00
2023-04-12T08:19:45.338Z,7.33
2023-04-12T08:22:13.705Z,7.73
2023-04-12T08:24:41.521Z,7.00
2023-04-12T08:27:09.159Z,5.80
2023-04-12T08:29:36.767Z,5.97
2023-04-12T08:32:05.146Z,6.70
2023-04-12T08:34:34.467Z,5.80
2023-04-12T08:37:02.159Z,6.70
2023-04-12T08:39:29.722Z,6.03
2023-04-12T08:41:58.257Z,6.23
2023-04-12T08:44:37.749Z,5.93
2023-04-12T08:47:07.081Z,7.90
2023-04-12T08:49:36.646Z,6.03
2023-04-12T08:52:06.672Z,6.00
2023-04-12T08:54:34.585Z,7.47
2023-04-12T08:57:04.821Z,7.33
2023-04-12T08:59:37.834Z,6.50
2023-04-12T09:02:05.778Z,6.50
2023-04-12T09:04:33.727Z,5.90
2023-04-12T09:07:03.098Z,5.77
2023-04-12T09:09:43.591Z,6.63
2023-04-12T09:12:12.238Z,11.80
2023-04-12T09:14:43.549Z,5.53
2023-04-12T09:17:23.538Z,5.67
2023-04-12T09:19:51.620Z,10.33
2023-04-12T09:22:20.556Z,6.13
2023-04-12T09:24:50.599Z,11.03
2023-04-12T09:27:20.926Z,6.43
2023-04-12T09:29:51.542Z,5.63
2023-04-12T09:32:27.297Z,5.73
2023-04-12T09:35:01.267Z,5.37
2023-04-12T09:37:30.215Z,5.10
2023-04-12T09:40:01.572Z,5.13
2023-04-12T09:42:34.028Z,7.07
2023-04-12T09:45:03.163Z,5.03
2023-04-12T09:47:41.243Z,4.90
2023-04-12T09:50:10.195Z,5.03
2023-04-12T09:52:40.224Z,6.10
2023-04-12T09:55:11.109Z,5.73
2023-04-12T09:57:41.481Z,7.20
2023-04-12T10:00:12.892Z,5.00
2023-04-12T10:02:45.055Z,5.77
2023-04-12T10:05:15.259Z,5.90
2023-04-12T10:07:45.314Z,6.73
2023-04-12T10:10:14.025Z,5.23
2023-04-12T10:12:42.393Z,6.20
2023-04-12T10:15:14.913Z,5.27
2023-04-12T10:17:45.313Z,6.23
2023-04-12T10:20:13.982Z,5.30
2023-04-12T10:22:44.643Z,4.90
2023-04-12T10:25:13.972Z,5.13
2023-04-12T10:27:43.444Z,5.83
2023-04-12T10:30:29.914Z,5.47
2023-04-12T10:33:16.833Z,5.57
2023-04-12T10:36:03.577Z,4.93
2023-04-12T10:38:47.108Z,5.10
2023-04-12T10:41:17.168Z,5.93
2023-04-12T10:43:46.353Z,7.07
2023-04-12T10:46:51.169Z,8.30
2023-04-12T10:49:20.848Z,5.13
2023-04-12T10:52:14.961Z,5.13
2023-04-12T10:54:44.453Z,6.90
2023-04-12T10:57:43.541Z,5.50
2023-04-12T11:00:12.262Z,6.43
2023-04-12T11:03:09.917Z,9.50
2023-04-12T11:06:20.157Z,5.27
2023-04-12T11:08:56.825Z,5.40
2023-04-12T11:11:27.476Z,5.33
2023-04-12T11:13:56.940Z,5.77
2023-04-12T11:16:24.995Z,5.20
2023-04-12T11:18:54.830Z,5.27
2023-04-12T11:21:23.370Z,5.47
2023-04-12T11:23:52.879Z,5.83
2023-04-12T11:26:22.083Z,5.30
2023-04-12T11:28:53.178Z,5.70
2023-04-12T11:31:21.540Z,6.40
2023-04-12T11:33:49.163Z,7.13
2023-04-12T11:36:16.810Z,5.47
2023-04-12T11:38:46.104Z,5.43
2023-04-12T11:41:16.822Z,5.93
2023-04-12T11:43:44.577Z,7.77
2023-04-12T11:46:14.032Z,7.27
2023-04-12T11:48:46.525Z,7.43
2023-04-12T11:51:20.886Z,7.03
2023-04-12T11:53:53.855Z,7.17
2023-04-12T11:56:21.618Z,7.63
2023-04-12T11:58:49.346Z,8.03
2023-04-12T12:01:20.274Z,8.13
2023-04-12T12:03:49.127Z,7.90
2023-04-12T12:06:17.707Z,8.73
2023-04-12T12:08:45.887Z,6.63
2023-04-12T12:11:13.843Z,7.00
2023-04-12T12:13:48.589Z,6.80
2023-04-12T12:16:18.745Z,7.83
2023-04-12T12:21:36.862Z,9.70
2023-04-12T12:24:04.690Z,8.27
2023-04-12T12:26:32.443Z,8.60
2023-04-12T12:27:07.531Z,7.23
2023-04-12T12:29:01.257Z,8.20
2023-04-12T12:31:30.684Z,7.97
2023-04-12T12:34:00.994Z,7.20
2023-04-12T12:36:33.292Z,8.27
2023-04-12T12:39:07.339Z,7.53
2023-04-12T12:41:35.666Z,7.80
2023-04-12T12:44:03.679Z,9.10
2023-04-12T12:46:50.697Z,8.27
2023-04-12T12:49:19.189Z,8.73
2023-04-12T12:51:46.872Z,8.20
2023-04-12T12:54:19.847Z,7.73
2023-04-12T12:56:53.037Z,9.00
2023-04-12T12:59:20.676Z,8.00
2023-04-12T13:01:49.751Z,8.97
2023-04-12T13:04:17.641Z,8.80
2023-04-12T13:06:45.504Z,9.90
2023-04-12T13:09:13.085Z,8.40
2023-04-12T13:11:40.831Z,8.47
2023-04-12T13:14:08.501Z,17.50
2023-04-12T13:16:36.121Z,9.77
2023-04-12T13:19:05.298Z,8.70
2023-04-12T13:21:33.129Z,11.93
2023-04-12T13:24:00.733Z,9.03
2023-04-12T13:26:28.337Z,9.37
2023-04-12T13:28:56.083Z,8.80
2023-04-12T13:31:24.021Z,9.17
2023-04-12T13:33:51.817Z,8.63
2023-04-12T13:36:20.971Z,8.70
2023-04-12T13:38:49.132Z,8.93
2023-04-12T13:41:16.799Z,7.90
2023-04-12T13:43:44.736Z,8.67
2023-04-12T13:46:13.002Z,8.93
2023-04-12T13:48:40.769Z,9.10
2023-04-12T13:51:08.501Z,8.93
2023-04-12T13:53:37.490Z,9.40
2023-04-12T13:56:05.557Z,9.37
2023-04-12T13:58:33.208Z,9.07
2023-04-12T14:01:00.954Z,9.00
2023-04-12T14:03:28.772Z,8.53
2023-04-12T14:05:56.724Z,9.37
2023-04-12T14:08:24.518Z,8.73
2023-04-12T14:10:54.402Z,8.10
2023-04-12T14:13:22.927Z,8.37
2023-04-12T14:15:51.957Z,8.40
2023-04-12T14:18:21.489Z,8.03
2023-04-12T14:20:52.568Z,9.07
2023-04-12T14:23:24.221Z,8.20
2023-04-12T14:25:54.089Z,8.47
2023-04-12T14:28:24.173Z,8.27
2023-04-12T14:30:52.823Z,8.30
2023-04-12T14:33:20.598Z,8.00
2023-04-12T14:35:48.609Z,8.50
2023-04-12T14:38:16.199Z,8.37
2023-04-12T14:40:43.801Z,8.77
2023-04-12T14:43:12.777Z,8.60
2023-04-12T14:45:40.545Z,8.63
2023-04-12T14:48:08.238Z,8.80
2023-04-12T14:50:35.972Z,8.00
2023-04-12T14:53:03.611Z,8.50
2023-04-12T14:55:31.633Z,8.57
2023-04-12T14:57:59.417Z,10.60
2023-04-12T15:00:29.316Z,9.40
2023-04-12T15:02:57.508Z,10.33
2023-04-12T15:05:25.430Z,9.90
2023-04-12T15:07:53.858Z,10.43
2023-04-12T15:10:21.633Z,8.90
2023-04-12T15:12:49.398Z,9.70
2023-04-12T15:15:17.125Z,9.93
2023-04-12T15:17:46.609Z,11.20
2023-04-12T15:20:16.776Z,9.30
2023-04-12T15:22:44.923Z,8.70
2023-04-12T15:25:12.726Z,9.17
2023-04-12T15:27:40.706Z,8.70
2023-04-12T15:30:10.845Z,9.20
2023-04-12T15:32:41.374Z,9.10
2023-04-12T15:37:42.244Z,8.80
2023-04-12T15:40:13.706Z,9.97
2023-04-12T15:42:42.940Z,10.20
2023-04-12T15:45:11.758Z,10.20
2023-04-12T15:47:39.352Z,9.70
2023-04-12T15:50:09.588Z,9.10
2023-04-12T15:52:39.177Z,9.37
2023-04-12T15:55:07.562Z,8.07
2023-04-12T15:57:37.158Z,9.00
2023-04-12T16:00:20.553Z,10.30
2023-04-12T16:02:53.405Z,9.77
2023-04-12T16:05:21.561Z,7.93
2023-04-12T16:07:51.465Z,7.53
2023-04-12T16:10:21.097Z,9.77
2023-04-12T16:12:49.624Z,7.60
2023-04-12T16:15:18.036Z,7.80
2023-04-12T16:17:47.067Z,7.60
2023-04-12T16:20:16.851Z,7.20
2023-04-12T16:22:45.520Z,7.50
2023-04-12T16:25:14.794Z,8.30
2023-04-12T16:27:42.399Z,7.07
2023-04-12T16:30:12.735Z,6.80
2023-04-12T16:32:40.344Z,7.83
2023-04-12T16:35:08.647Z,7.60
2023-04-12T16:37:36.257Z,7.30
2023-04-12T16:40:06.737Z,12.53
2023-04-12T16:42:35.828Z,8.50
2023-04-12T16:45:04.436Z,7.80
2023-04-12T16:47:32.123Z,7.30
2023-04-12T16:49:59.701Z,7.97
2023-04-12T16:52:27.294Z,7.00
2023-04-12T16:54:54.895Z,7.90
2023-04-12T16:57:23.571Z,7.67
2023-04-12T16:59:52.801Z,8.60
2023-04-12T17:02:20.751Z,8.40
2023-04-12T17:04:48.573Z,8.27
2023-04-12T17:07:16.528Z,7.77
2023-04-12T17:09:44.602Z,8.17
2023-04-12T17:12:12.507Z,8.30
2023-04-12T17:14:40.207Z,8.03
2023-04-12T17:17:09.249Z,7.70
2023-04-12T17:19:36.839Z,9.17
2023-04-12T17:22:04.442Z,9.33
2023-04-12T17:24:32.227Z,8.53
2023-04-12T17:27:00.898Z,9.77
2023-04-12T17:29:29.062Z,9.20
2023-04-12T17:31:56.676Z,8.60
2023-04-12T17:34:25.730Z,8.83
2023-04-12T17:36:55.104Z,8.73
2023-04-12T17:39:22.680Z,9.27
2023-04-12T17:41:50.385Z,9.10
2023-04-12T17:44:17.981Z,9.33
2023-04-12T17:46:45.570Z,9.63
2023-04-12T17:49:13.274Z,9.70
2023-04-12T17:51:42.271Z,9.53
2023-04-12T17:54:09.855Z,9.80
2023-04-12T17:56:37.462Z,9.87
2023-04-12T17:59:05.542Z,10.50
2023-04-12T18:01:34.738Z,9.87
2023-04-12T18:04:05.610Z,9.53
2023-04-12T18:06:33.665Z,10.03
2023-04-12T18:09:02.757Z,10.43
2023-04-12T18:11:30.332Z,10.40
2023-04-12T18:13:57.980Z,10.17
2023-04-12T18:16:26.553Z,9.90
2023-04-12T18:18:54.846Z,9.60
2023-04-12T18:21:22.481Z,9.70
2023-04-12T18:23:50.265Z,10.30
2023-04-12T18:26:19.316Z,10.10
2023-04-12T18:28:46.930Z,11.73
2023-04-12T18:31:14.578Z,13.20
2023-04-12T18:33:42.787Z,13.57
2023-04-12T18:36:12.025Z,11.30
2023-04-12T18:38:40.177Z,11.10
2023-04-12T18:41:09.152Z,11.63
2023-04-12T18:43:38.550Z,10.83
2023-04-12T18:46:06.318Z,10.93
2023-04-12T18:48:34.062Z,11.23
2023-04-12T18:51:01.714Z,12.00
2023-04-12T18:53:29.452Z,12.80
2023-04-12T18:56:07.611Z,12.03
2023-04-12T19:01:08.472Z,12.77
2023-04-12T19:03:36.875Z,11.23
2023-04-12T19:06:04.799Z,12.20
2023-04-12T19:08:32.530Z,11.80
2023-04-12T19:11:00.392Z,11.20
2023-04-12T19:13:28.008Z,11.60
2023-04-12T19:15:56.146Z,11.60
2023-04-12T19:18:26.805Z,12.10
2023-04-12T19:20:54.656Z,12.33
2023-04-12T19:23:22.354Z,12.70
2023-04-12T19:25:49.969Z,12.83
2023-04-12T19:28:17.697Z,12.37
2023-04-12T19:30:45.373Z,13.33
2023-04-12T19:33:13.004Z,15.67
2023-04-12T19:35:42.148Z,13.03
2023-04-12T19:38:09.909Z,12.23
2023-04-12T19:40:37.644Z,14.50
2023-04-12T19:43:07.736Z,14.13
2023-04-12T19:45:35.455Z,14.90
2023-04-12T19:48:03.500Z,16.70
2023-04-12T19:50:31.948Z,15.57
2023-04-12T19:53:00.918Z,14.40
2023-04-12T19:55:28.718Z,14.20
2023-04-12T19:57:56.674Z,11.53
2023-04-12T20:00:25.320Z,9.80
2023-04-12T20:02:55.125Z,9.23
2023-04-12T20:05:25.281Z,10.57
2023-04-12T20:07:55.677Z,10.00
2023-04-12T20:10:24.642Z,11.73
2023-04-12T20:12:52.207Z,12.37
2023-04-12T20:15:19.803Z,12.23
2023-04-12T20:17:48.439Z,11.57
2023-04-12T20:20:16.179Z,10.63
2023-04-12T20:22:45.904Z,10.43
2023-04-12T20:25:15.090Z,10.00
2023-04-12T20:27:51.436Z,11.00
2023-04-12T20:30:21.045Z,9.63
2023-04-12T20:32:49.172Z,10.77
2023-04-12T20:35:17.936Z,11.10
2023-04-12T20:37:49.480Z,12.57
2023-04-12T20:40:17.363Z,12.60
2023-04-12T20:42:46.829Z,11.60
2023-04-12T20:45:16.849Z,10.93
2023-04-12T20:47:44.500Z,12.20
2023-04-12T20:50:12.684Z,11.77
2023-04-12T20:52:40.323Z,11.40
2023-04-12T20:55:08.793Z,11.50
2023-04-12T20:57:36.375Z,11.17
2023-04-12T21:00:12.695Z,15.93
2023-04-12T21:02:40.580Z,9.83
2023-04-12T21:05:08.871Z,9.80
2023-04-12T21:07:36.455Z,10.70
2023-04-12T21:10:04.257Z,10.50
2023-04-12T21:12:32.149Z,10.03
2023-04-12T21:15:00.625Z,10.17
2023-04-12T21:17:30.129Z,10.20
2023-04-12T21:19:58.259Z,10.50
2023-04-12T21:22:26.209Z,9.97
2023-04-12T21:24:53.799Z,10.33
2023-04-12T21:27:21.398Z,10.93
2023-04-12T21:29:49.039Z,11.90
2023-04-12T21:32:17.001Z,10.63
2023-04-12T21:34:45.912Z,10.77
2023-04-12T21:37:13.542Z,10.50
2023-04-12T21:39:43.453Z,10.20
2023-04-12T21:42:11.071Z,11.10
2023-04-12T21:44:39.571Z,10.80
2023-04-12T21:47:07.565Z,10.10
2023-04-12T21:49:35.234Z,12.50
2023-04-12T21:52:04.957Z,11.23
2023-04-12T21:54:36.717Z,10.83
2023-04-12T21:57:04.549Z,10.70
2023-04-12T21:59:32.104Z,11.20
2023-04-12T22:01:59.727Z,10.33
2023-04-12T22:04:27.321Z,10.70
2023-04-12T22:06:55.725Z,10.80
2023-04-12T22:09:25.448Z,9.90
2023-04-12T22:11:53.805Z,10.47
2023-04-12T22:14:21.483Z,10.13
2023-04-12T22:16:49.736Z,9.70
2023-04-12T22:19:17.904Z,10.03
2023-04-12T22:21:48.514Z,10.67
2023-04-12T22:24:16.761Z,10.93
2023-04-12T22:26:45.741Z,10.43
2023-04-12T22:29:13.391Z,11.80
2023-04-12T22:31:41.001Z,10.70
2023-04-12T22:34:08.608Z,10.87
2023-04-12T22:36:37.256Z,10.70
2023-04-12T22:39:05.314Z,11.30
2023-04-12T22:41:33.381Z,12.13
2023-04-12T22:44:02.821Z,12.50
2023-04-12T22:46:32.266Z,11.73
2023-04-12T22:49:01.408Z,11.90
2023-04-12T22:51:29.110Z,11.87
2023-04-12T22:53:58.134Z,12.43
2023-04-12T22:56:27.001Z,12.40
2023-04-12T22:58:55.641Z,11.20
2023-04-12T23:01:25.179Z,11.93
2023-04-12T23:03:52.794Z,10.90
2023-04-12T23:06:20.636Z,12.70
2023-04-12T23:08:49.597Z,10.17
2023-04-12T23:11:17.250Z,12.10
2023-04-12T23:13:44.858Z,10.43
2023-04-12T23:16:12.440Z,11.33
2023-04-12T23:18:41.365Z,11.20
2023-04-12T23:21:11.070Z,11.57
2023-04-12T23:23:38.768Z,11.43
2023-04-12T23:26:06.919Z,12.07
2023-04-12T23:28:34.556Z,13.00
2023-04-12T23:31:02.645Z,13.80
2023-04-12T23:33:30.691Z,14.60
2023-04-12T23:36:02.778Z,14.77
2023-04-12T23:38:33.686Z,14.50
2023-04-12T23:41:02.303Z,14.50
2023-04-12T23:43:30.583Z,12.90
2023-04-12T23:45:58.361Z,15.10
2023-04-12T23:48:26.110Z,15.40
2023-04-12T23:50:54.173Z,15.20
2023-04-12T23:53:23.310Z,15.83
2023-04-12T23:55:53.185Z,15.43
2023-04-12T23:58:21.464Z,14.77
